sensor_id;sensor_type;location;lat;lon;timestamp;P1;durP1;ratioP1;P2;durP2;ratioP2
69185;SDS011;56298;49.246;9.410;2023-06-14T00:01:31;7.90;;;4.60;;
69185;SDS011;56298;49.246;9.410;2023-06-14T00:03:59;8.03;;;4.67;;
69185;SDS011;56298;49.246;9.410;2023-06-14T00:06:25;8.17;;;5.00;;
69185;SDS011;56298;49.246;9.410;2023-06-14T00:08:51;7.95;;;4.55;;
69185;SDS011;56298;49.246;9.410;2023-06-14T00:11:16;8.57;;;4.40;;
69185;SDS011;56298;49.246;9.410;2023-06-14T00:13:41;11.10;;;4.80;;
69185;SDS011;56298;49.246;9.410;2023-06-14T00:16:08;7.33;;;4.67;;
69185;SDS011;56298;49.246;9.410;2023-06-14T00:18:33;8.50;;;4.57;;
69185;SDS011;56298;49.246;9.410;2023-06-14T00:20:58;8.47;;;4.67;;
69185;SDS011;56298;49.246;9.410;2023-06-14T00:23:23;7.20;;;4.63;;
69185;SDS011;56298;49.246;9.410;2023-06-14T00:25:49;9.17;;;4.70;;
69185;SDS011;56298;49.246;9.410;2023-06-14T00:28:14;8.63;;;4.40;;
69185;SDS011;56298;49.246;9.410;2023-06-14T00:30:40;9.33;;;4.77;;
69185;SDS011;56298;49.246;9.410;2023-06-14T00:33:05;7.37;;;4.90;;
69185;SDS011;56298;49.246;9.410;2023-06-14T00:35:31;8.10;;;4.77;;
69185;SDS011;56298;49.246;9.410;2023-06-14T00:37:56;7.88;;;4.75;;
69185;SDS011;56298;49.246;9.410;2023-06-14T00:40:21;8.20;;;5.07;;
69185;SDS011;56298;49.246;9.410;2023-06-14T00:42:47;8.32;;;5.05;;
69185;SDS011;56298;49.246;9.410;2023-06-14T00:45:12;8.85;;;5.00;;
69185;SDS011;56298;49.246;9.410;2023-06-14T00:47:38;7.93;;;5.07;;
69185;SDS011;56298;49.246;9.410;2023-06-14T00:50:07;8.43;;;4.88;;
69185;SDS011;56298;49.246;9.410;2023-06-14T00:52:33;8.00;;;5.10;;
69185;SDS011;56298;49.246;9.410;2023-06-14T00:54:59;9.73;;;5.10;;
69185;SDS011;56298;49.246;9.410;2023-06-14T00:57:25;9.40;;;4.80;;
69185;SDS011;56298;49.246;9.410;2023-06-14T00:59:51;8.15;;;5.00;;
69185;SDS011;56298;49.246;9.410;2023-06-14T01:02:17;8.60;;;5.07;;
69185;SDS011;56298;49.246;9.410;2023-06-14T01:04:46;8.17;;;5.13;;
69185;SDS011;56298;49.246;9.410;2023-06-14T01:10:20;9.55;;;5.20;;
69185;SDS011;56298;49.246;9.410;2023-06-14T01:13:01;7.93;;;5.30;;
69185;SDS011;56298;49.246;9.410;2023-06-14T01:15:31;7.95;;;4.95;;
69185;SDS011;56298;49.246;9.410;2023-06-14T01:17:57;9.25;;;5.35;;
69185;SDS011;56298;49.246;9.410;2023-06-14T01:20:28;8.35;;;5.40;;
69185;SDS011;56298;49.246;9.410;2023-06-14T01:22:56;7.85;;;5.00;;
69185;SDS011;56298;49.246;9.410;2023-06-14T01:25:21;10.30;;;5.57;;
69185;SDS011;56298;49.246;9.410;2023-06-14T01:27:51;9.65;;;5.40;;
69185;SDS011;56298;49.246;9.410;2023-06-14T01:30:20;7.60;;;5.10;;
69185;SDS011;56298;49.246;9.410;2023-06-14T01:32:47;8.13;;;5.28;;
69185;SDS011;56298;49.246;9.410;2023-06-14T01:35:15;8.98;;;5.65;;
69185;SDS011;56298;49.246;9.410;2023-06-14T01:37:40;8.83;;;5.83;;
69185;SDS011;56298;49.246;9.410;2023-06-14T01:40:07;8.23;;;5.30;;
69185;SDS011;56298;49.246;9.410;2023-06-14T01:42:35;9.77;;;5.20;;
69185;SDS011;56298;49.246;9.410;2023-06-14T01:45:03;8.82;;;5.10;;
69185;SDS011;56298;49.246;9.410;2023-06-14T01:47:30;8.43;;;5.47;;
69185;SDS011;56298;49.246;9.410;2023-06-14T01:49:57;8.93;;;5.40;;
69185;SDS011;56298;49.246;9.410;2023-06-14T01:52:22;10.27;;;5.77;;
69185;SDS011;56298;49.246;9.410;2023-06-14T01:54:49;8.65;;;5.25;;
69185;SDS011;56298;49.246;9.410;2023-06-14T01:57:15;8.37;;;5.60;;
69185;SDS011;56298;49.246;9.410;2023-06-14T01:59:40;11.93;;;5.67;;
69185;SDS011;56298;49.246;9.410;2023-06-14T02:02:05;8.50;;;5.90;;
69185;SDS011;56298;49.246;9.410;2023-06-14T02:04:30;10.30;;;5.60;;
69185;SDS011;56298;49.246;9.410;2023-06-14T02:06:56;10.53;;;5.57;;
69185;SDS011;56298;49.246;9.410;2023-06-14T02:09:21;8.60;;;5.33;;
69185;SDS011;56298;49.246;9.410;2023-06-14T02:11:46;9.10;;;5.73;;
69185;SDS011;56298;49.246;9.410;2023-06-14T02:14:11;10.30;;;5.93;;
69185;SDS011;56298;49.246;9.410;2023-06-14T02:16:37;9.00;;;5.90;;
69185;SDS011;56298;49.246;9.410;2023-06-14T02:19:04;8.70;;;5.93;;
69185;SDS011;56298;49.246;9.410;2023-06-14T02:21:29;9.18;;;5.70;;
69185;SDS011;56298;49.246;9.410;2023-06-14T02:23:55;9.40;;;5.90;;
69185;SDS011;56298;49.246;9.410;2023-06-14T02:26:20;11.93;;;5.83;;
69185;SDS011;56298;49.246;9.410;2023-06-14T02:28:47;10.32;;;5.93;;
69185;SDS011;56298;49.246;9.410;2023-06-14T02:31:12;8.30;;;5.57;;
69185;SDS011;56298;49.246;9.410;2023-06-14T02:33:38;10.00;;;6.10;;
69185;SDS011;56298;49.246;9.410;2023-06-14T02:36:03;10.38;;;5.75;;
69185;SDS011;56298;49.246;9.410;2023-06-14T02:38:28;10.07;;;6.07;;
69185;SDS011;56298;49.246;9.410;2023-06-14T02:40:53;8.53;;;5.90;;
69185;SDS011;56298;49.246;9.410;2023-06-14T02:43:19;8.97;;;6.03;;
69185;SDS011;56298;49.246;9.410;2023-06-14T02:45:45;10.13;;;6.15;;
69185;SDS011;56298;49.246;9.410;2023-06-14T02:48:10;9.80;;;6.20;;
69185;SDS011;56298;49.246;9.410;2023-06-14T02:50:36;9.80;;;6.03;;
69185;SDS011;56298;49.246;9.410;2023-06-14T02:53:01;9.67;;;6.37;;
69185;SDS011;56298;49.246;9.410;2023-06-14T02:55:27;9.80;;;6.13;;
69185;SDS011;56298;49.246;9.410;2023-06-14T02:57:53;10.17;;;6.37;;
69185;SDS011;56298;49.246;9.410;2023-06-14T03:00:18;9.87;;;6.20;;
69185;SDS011;56298;49.246;9.410;2023-06-14T03:02:44;8.50;;;5.80;;
69185;SDS011;56298;49.246;9.410;2023-06-14T03:05:10;9.30;;;6.15;;
69185;SDS011;56298;49.246;9.410;2023-06-14T03:07:36;9.67;;;6.10;;
69185;SDS011;56298;49.246;9.410;2023-06-14T03:10:05;10.43;;;6.50;;
69185;SDS011;56298;49.246;9.410;2023-06-14T03:12:35;11.00;;;6.18;;
69185;SDS011;56298;49.246;9.410;2023-06-14T03:15:01;9.30;;;6.53;;
69185;SDS011;56298;49.246;9.410;2023-06-14T03:17:26;11.00;;;5.90;;
69185;SDS011;56298;49.246;9.410;2023-06-14T03:19:54;9.93;;;6.05;;
69185;SDS011;56298;49.246;9.410;2023-06-14T03:22:20;9.60;;;6.63;;
69185;SDS011;56298;49.246;9.410;2023-06-14T03:24:46;10.30;;;5.90;;
69185;SDS011;56298;49.246;9.410;2023-06-14T03:27:12;8.47;;;6.20;;
69185;SDS011;56298;49.246;9.410;2023-06-14T03:29:37;10.80;;;6.20;;
69185;SDS011;56298;49.246;9.410;2023-06-14T03:32:03;9.47;;;6.00;;
69185;SDS011;56298;49.246;9.410;2023-06-14T03:34:28;8.68;;;6.13;;
69185;SDS011;56298;49.246;9.410;2023-06-14T03:36:54;9.55;;;6.28;;
69185;SDS011;56298;49.246;9.410;2023-06-14T03:39:19;9.20;;;6.35;;
69185;SDS011;56298;49.246;9.410;2023-06-14T03:41:45;9.80;;;6.20;;
69185;SDS011;56298;49.246;9.410;2023-06-14T03:44:11;10.23;;;6.13;;
69185;SDS011;56298;49.246;9.410;2023-06-14T03:46:36;10.70;;;6.47;;
69185;SDS011;56298;49.246;9.410;2023-06-14T03:49:01;9.17;;;6.20;;
69185;SDS011;56298;49.246;9.410;2023-06-14T03:51:27;10.57;;;6.53;;
69185;SDS011;56298;49.246;9.410;2023-06-14T03:53:53;10.03;;;6.90;;
69185;SDS011;56298;49.246;9.410;2023-06-14T03:56:19;11.32;;;6.65;;
69185;SDS011;56298;49.246;9.410;2023-06-14T03:58:44;11.40;;;6.20;;
69185;SDS011;56298;49.246;9.410;2023-06-14T04:01:09;10.02;;;6.57;;
69185;SDS011;56298;49.246;9.410;2023-06-14T04:03:37;9.50;;;6.67;;
69185;SDS011;56298;49.246;9.410;2023-06-14T04:06:02;9.02;;;6.13;;
69185;SDS011;56298;49.246;9.410;2023-06-14T04:08:29;10.50;;;6.40;;
69185;SDS011;56298;49.246;9.410;2023-06-14T04:10:55;10.50;;;6.73;;
69185;SDS011;56298;49.246;9.410;2023-06-14T04:13:20;10.20;;;6.23;;
69185;SDS011;56298;49.246;9.410;2023-06-14T04:15:45;10.57;;;6.47;;
69185;SDS011;56298;49.246;9.410;2023-06-14T04:18:11;10.07;;;6.63;;
69185;SDS011;56298;49.246;9.410;2023-06-14T04:20:36;10.80;;;6.28;;
69185;SDS011;56298;49.246;9.410;2023-06-14T04:23:12;10.60;;;6.70;;
69185;SDS011;56298;49.246;9.410;2023-06-14T04:25:43;9.93;;;6.35;;
69185;SDS011;56298;49.246;9.410;2023-06-14T04:28:13;9.98;;;6.00;;
69185;SDS011;56298;49.246;9.410;2023-06-14T04:30:40;11.60;;;6.22;;
69185;SDS011;56298;49.246;9.410;2023-06-14T04:33:06;10.47;;;6.13;;
69185;SDS011;56298;49.246;9.410;2023-06-14T04:35:31;9.17;;;5.93;;
69185;SDS011;56298;49.246;9.410;2023-06-14T04:37:57;10.07;;;6.20;;
69185;SDS011;56298;49.246;9.410;2023-06-14T04:40:23;9.98;;;6.00;;
69185;SDS011;56298;49.246;9.410;2023-06-14T04:42:48;9.23;;;5.97;;
69185;SDS011;56298;49.246;9.410;2023-06-14T04:45:15;10.32;;;6.03;;
69185;SDS011;56298;49.246;9.410;2023-06-14T04:47:41;9.70;;;5.73;;
69185;SDS011;56298;49.246;9.410;2023-06-14T04:50:07;9.30;;;6.37;;
69185;SDS011;56298;49.246;9.410;2023-06-14T04:52:32;11.20;;;6.03;;
69185;SDS011;56298;49.246;9.410;2023-06-14T04:54:58;9.50;;;5.87;;
69185;SDS011;56298;49.246;9.410;2023-06-14T04:57:24;10.68;;;5.95;;
69185;SDS011;56298;49.246;9.410;2023-06-14T04:59:50;9.45;;;6.05;;
69185;SDS011;56298;49.246;9.410;2023-06-14T05:02:19;9.43;;;6.10;;
69185;SDS011;56298;49.246;9.410;2023-06-14T05:04:45;9.77;;;6.13;;
69185;SDS011;56298;49.246;9.410;2023-06-14T05:07:12;10.77;;;5.90;;
69185;SDS011;56298;49.246;9.410;2023-06-14T05:09:39;10.10;;;6.20;;
69185;SDS011;56298;49.246;9.410;2023-06-14T05:12:04;10.10;;;6.07;;
69185;SDS011;56298;49.246;9.410;2023-06-14T05:14:33;9.65;;;5.80;;
69185;SDS011;56298;49.246;9.410;2023-06-14T05:16:58;9.48;;;6.03;;
69185;SDS011;56298;49.246;9.410;2023-06-14T05:19:24;9.02;;;5.72;;
69185;SDS011;56298;49.246;9.410;2023-06-14T05:21:49;9.65;;;5.50;;
69185;SDS011;56298;49.246;9.410;2023-06-14T05:24:15;9.90;;;6.10;;
69185;SDS011;56298;49.246;9.410;2023-06-14T05:26:42;10.68;;;5.60;;
69185;SDS011;56298;49.246;9.410;2023-06-14T05:29:08;9.50;;;5.47;;
69185;SDS011;56298;49.246;9.410;2023-06-14T05:31:33;11.17;;;5.63;;
69185;SDS011;56298;49.246;9.410;2023-06-14T05:33:58;9.87;;;5.40;;
69185;SDS011;56298;49.246;9.410;2023-06-14T05:36:23;10.07;;;5.30;;
69185;SDS011;56298;49.246;9.410;2023-06-14T05:38:50;8.47;;;5.23;;
69185;SDS011;56298;49.246;9.410;2023-06-14T05:41:22;10.77;;;5.45;;
69185;SDS011;56298;49.246;9.410;2023-06-14T05:43:47;11.43;;;5.40;;
69185;SDS011;56298;49.246;9.410;2023-06-14T05:46:12;9.40;;;5.70;;
69185;SDS011;56298;49.246;9.410;2023-06-14T05:48:38;7.90;;;4.95;;
69185;SDS011;56298;49.246;9.410;2023-06-14T05:51:03;9.80;;;5.07;;
69185;SDS011;56298;49.246;9.410;2023-06-14T05:53:28;8.48;;;5.10;;
69185;SDS011;56298;49.246;9.410;2023-06-14T05:55:53;8.77;;;5.18;;
69185;SDS011;56298;49.246;9.410;2023-06-14T05:58:20;8.00;;;5.15;;
69185;SDS011;56298;49.246;9.410;2023-06-14T06:00:45;7.50;;;5.05;;
69185;SDS011;56298;49.246;9.410;2023-06-14T06:03:12;7.90;;;5.30;;
69185;SDS011;56298;49.246;9.410;2023-06-14T06:05:38;8.20;;;4.90;;
69185;SDS011;56298;49.246;9.410;2023-06-14T06:08:03;8.73;;;5.10;;
69185;SDS011;56298;49.246;9.410;2023-06-14T06:10:29;10.33;;;5.27;;
69185;SDS011;56298;49.246;9.410;2023-06-14T06:12:54;7.97;;;5.30;;
69185;SDS011;56298;49.246;9.410;2023-06-14T06:15:20;8.40;;;4.77;;
69185;SDS011;56298;49.246;9.410;2023-06-14T06:17:46;10.05;;;5.20;;
69185;SDS011;56298;49.246;9.410;2023-06-14T06:20:11;8.13;;;5.33;;
69185;SDS011;56298;49.246;9.410;2023-06-14T06:22:37;7.03;;;4.90;;
69185;SDS011;56298;49.246;9.410;2023-06-14T06:25:02;7.75;;;4.63;;
69185;SDS011;56298;49.246;9.410;2023-06-14T06:27:28;10.60;;;5.10;;
69185;SDS011;56298;49.246;9.410;2023-06-14T06:29:53;7.97;;;5.10;;
69185;SDS011;56298;49.246;9.410;2023-06-14T06:32:18;8.00;;;5.30;;
69185;SDS011;56298;49.246;9.410;2023-06-14T06:34:44;10.50;;;5.10;;
69185;SDS011;56298;49.246;9.410;2023-06-14T06:37:09;7.33;;;5.00;;
69185;SDS011;56298;49.246;9.410;2023-06-14T06:39:35;8.48;;;4.60;;
69185;SDS011;56298;49.246;9.410;2023-06-14T06:42:00;7.70;;;5.10;;
69185;SDS011;56298;49.246;9.410;2023-06-14T06:44:26;9.40;;;4.63;;
69185;SDS011;56298;49.246;9.410;2023-06-14T06:46:51;8.00;;;5.00;;
69185;SDS011;56298;49.246;9.410;2023-06-14T06:49:16;6.70;;;4.90;;
69185;SDS011;56298;49.246;9.410;2023-06-14T06:51:42;6.73;;;4.60;;
69185;SDS011;56298;49.246;9.410;2023-06-14T06:54:10;8.85;;;4.63;;
69185;SDS011;56298;49.246;9.410;2023-06-14T06:56:36;7.38;;;4.88;;
69185;SDS011;56298;49.246;9.410;2023-06-14T06:59:03;7.90;;;4.88;;
69185;SDS011;56298;49.246;9.410;2023-06-14T07:01:28;7.33;;;5.07;;
69185;SDS011;56298;49.246;9.410;2023-06-14T07:03:54;6.37;;;4.60;;
69185;SDS011;56298;49.246;9.410;2023-06-14T07:06:20;8.07;;;4.60;;
69185;SDS011;56298;49.246;9.410;2023-06-14T07:08:45;6.77;;;4.73;;
69185;SDS011;56298;49.246;9.410;2023-06-14T07:11:14;7.75;;;4.63;;
69185;SDS011;56298;49.246;9.410;2023-06-14T07:13:40;8.37;;;4.87;;
69185;SDS011;56298;49.246;9.410;2023-06-14T07:16:05;7.97;;;4.80;;
69185;SDS011;56298;49.246;9.410;2023-06-14T07:18:31;9.20;;;4.50;;
69185;SDS011;56298;49.246;9.410;2023-06-14T07:20:56;8.20;;;4.90;;
69185;SDS011;56298;49.246;9.410;2023-06-14T07:23:22;6.63;;;4.97;;
69185;SDS011;56298;49.246;9.410;2023-06-14T07:25:47;14.52;;;4.97;;
69185;SDS011;56298;49.246;9.410;2023-06-14T07:28:13;9.17;;;5.00;;
69185;SDS011;56298;49.246;9.410;2023-06-14T07:30:38;7.10;;;4.77;;
69185;SDS011;56298;49.246;9.410;2023-06-14T07:33:03;6.67;;;4.67;;
69185;SDS011;56298;49.246;9.410;2023-06-14T07:35:28;6.87;;;4.60;;
69185;SDS011;56298;49.246;9.410;2023-06-14T07:37:54;7.23;;;4.70;;
69185;SDS011;56298;49.246;9.410;2023-06-14T07:40:20;7.13;;;4.70;;
69185;SDS011;56298;49.246;9.410;2023-06-14T07:42:45;7.13;;;4.95;;
69185;SDS011;56298;49.246;9.410;2023-06-14T07:45:12;6.80;;;4.90;;
69185;SDS011;56298;49.246;9.410;2023-06-14T07:47:38;7.70;;;4.80;;
69185;SDS011;56298;49.246;9.410;2023-06-14T07:50:03;7.67;;;4.63;;
69185;SDS011;56298;49.246;9.410;2023-06-14T07:52:29;7.57;;;4.53;;
69185;SDS011;56298;49.246;9.410;2023-06-14T07:54:55;7.63;;;4.57;;
69185;SDS011;56298;49.246;9.410;2023-06-14T07:57:21;7.13;;;4.75;;
69185;SDS011;56298;49.246;9.410;2023-06-14T07:59:47;6.77;;;4.33;;
69185;SDS011;56298;49.246;9.410;2023-06-14T08:02:12;7.38;;;4.65;;
69185;SDS011;56298;49.246;9.410;2023-06-14T08:04:37;7.77;;;4.47;;
69185;SDS011;56298;49.246;9.410;2023-06-14T08:07:03;7.28;;;4.70;;
69185;SDS011;56298;49.246;9.410;2023-06-14T08:09:29;7.03;;;4.50;;
69185;SDS011;56298;49.246;9.410;2023-06-14T08:11:55;7.57;;;4.33;;
69185;SDS011;56298;49.246;9.410;2023-06-14T08:14:20;7.07;;;4.47;;
69185;SDS011;56298;49.246;9.410;2023-06-14T08:16:46;9.50;;;4.33;;
69185;SDS011;56298;49.246;9.410;2023-06-14T08:19:11;6.00;;;4.37;;
69185;SDS011;56298;49.246;9.410;2023-06-14T08:21:36;7.07;;;4.27;;
69185;SDS011;56298;49.246;9.410;2023-06-14T08:24:01;8.10;;;4.60;;
69185;SDS011;56298;49.246;9.410;2023-06-14T08:26:27;7.50;;;4.78;;
69185;SDS011;56298;49.246;9.410;2023-06-14T08:28:54;7.68;;;4.50;;
69185;SDS011;56298;49.246;9.410;2023-06-14T08:31:20;8.02;;;4.78;;
69185;SDS011;56298;49.246;9.410;2023-06-14T08:33:45;7.03;;;4.43;;
69185;SDS011;56298;49.246;9.410;2023-06-14T08:36:10;7.27;;;4.80;;
69185;SDS011;56298;49.246;9.410;2023-06-14T08:38:37;6.55;;;4.38;;
69185;SDS011;56298;49.246;9.410;2023-06-14T08:41:02;7.90;;;4.25;;
69185;SDS011;56298;49.246;9.410;2023-06-14T08:43:30;8.88;;;4.85;;
69185;SDS011;56298;49.246;9.410;2023-06-14T08:46:00;7.43;;;4.57;;
69185;SDS011;56298;49.246;9.410;2023-06-14T08:48:27;6.65;;;4.40;;
69185;SDS011;56298;49.246;9.410;2023-06-14T08:50:54;7.20;;;4.53;;
69185;SDS011;56298;49.246;9.410;2023-06-14T08:53:26;6.87;;;4.47;;
69185;SDS011;56298;49.246;9.410;2023-06-14T08:55:53;6.13;;;4.40;;
69185;SDS011;56298;49.246;9.410;2023-06-14T08:58:20;7.13;;;4.47;;
69185;SDS011;56298;49.246;9.410;2023-06-14T09:00:49;7.20;;;4.20;;
69185;SDS011;56298;49.246;9.410;2023-06-14T09:03:15;6.17;;;4.27;;
69185;SDS011;56298;49.246;9.410;2023-06-14T09:05:40;7.32;;;4.50;;
69185;SDS011;56298;49.246;9.410;2023-06-14T09:08:05;6.30;;;4.47;;
69185;SDS011;56298;49.246;9.410;2023-06-14T09:10:31;7.43;;;4.33;;
69185;SDS011;56298;49.246;9.410;2023-06-14T09:13:02;7.40;;;4.40;;
69185;SDS011;56298;49.246;9.410;2023-06-14T09:15:28;7.10;;;4.50;;
69185;SDS011;56298;49.246;9.410;2023-06-14T09:17:53;6.80;;;4.40;;
69185;SDS011;56298;49.246;9.410;2023-06-14T09:20:18;8.80;;;4.90;;
69185;SDS011;56298;49.246;9.410;2023-06-14T09:22:44;7.60;;;5.10;;
69185;SDS011;56298;49.246;9.410;2023-06-14T09:25:10;9.30;;;4.90;;
69185;SDS011;56298;49.246;9.410;2023-06-14T09:27:36;7.53;;;4.60;;
69185;SDS011;56298;49.246;9.410;2023-06-14T09:30:04;8.20;;;4.50;;
69185;SDS011;56298;49.246;9.410;2023-06-14T09:32:32;8.07;;;4.63;;
69185;SDS011;56298;49.246;9.410;2023-06-14T09:35:02;8.23;;;4.50;;
69185;SDS011;56298;49.246;9.410;2023-06-14T09:37:27;7.47;;;5.03;;
69185;SDS011;56298;49.246;9.410;2023-06-14T09:39:57;7.90;;;4.57;;
69185;SDS011;56298;49.246;9.410;2023-06-14T09:42:22;6.47;;;4.70;;
69185;SDS011;56298;49.246;9.410;2023-06-14T09:44:51;8.40;;;5.15;;
69185;SDS011;56298;49.246;9.410;2023-06-14T09:47:17;8.15;;;4.80;;
69185;SDS011;56298;49.246;9.410;2023-06-14T09:49:43;8.93;;;4.60;;
69185;SDS011;56298;49.246;9.410;2023-06-14T09:52:13;6.80;;;4.80;;
69185;SDS011;56298;49.246;9.410;2023-06-14T09:54:42;7.03;;;4.97;;
69185;SDS011;56298;49.246;9.410;2023-06-14T09:57:10;7.40;;;4.78;;
69185;SDS011;56298;49.246;9.410;2023-06-14T09:59:36;7.00;;;4.63;;
69185;SDS011;56298;49.246;9.410;2023-06-14T10:02:07;7.18;;;4.50;;
69185;SDS011;56298;49.246;9.410;2023-06-14T10:04:51;8.10;;;4.60;;
69185;SDS011;56298;49.246;9.410;2023-06-14T10:07:22;8.13;;;4.70;;
69185;SDS011;56298;49.246;9.410;2023-06-14T10:09:51;8.80;;;4.30;;
69185;SDS011;56298;49.246;9.410;2023-06-14T10:12:17;8.25;;;4.90;;
69185;SDS011;56298;49.246;9.410;2023-06-14T10:14:46;6.80;;;4.60;;
69185;SDS011;56298;49.246;9.410;2023-06-14T10:23:19;6.68;;;4.18;;
69185;SDS011;56298;49.246;9.410;2023-06-14T10:25:51;6.70;;;4.30;;
69185;SDS011;56298;49.246;9.410;2023-06-14T10:28:21;6.65;;;4.25;;
69185;SDS011;56298;49.246;9.410;2023-06-14T10:33:30;6.30;;;4.10;;
69185;SDS011;56298;49.246;9.410;2023-06-14T10:38:48;8.00;;;4.40;;
69185;SDS011;56298;49.246;9.410;2023-06-14T10:41:22;8.43;;;4.60;;
69185;SDS011;56298;49.246;9.410;2023-06-14T10:43:47;10.00;;;4.57;;
69185;SDS011;56298;49.246;9.410;2023-06-14T10:46:13;8.17;;;4.30;;
69185;SDS011;56298;49.246;9.410;2023-06-14T10:48:42;7.03;;;4.20;;
69185;SDS011;56298;49.246;9.410;2023-06-14T10:51:15;7.60;;;4.10;;
69185;SDS011;56298;49.246;9.410;2023-06-14T10:53:47;6.88;;;4.13;;
69185;SDS011;56298;49.246;9.410;2023-06-14T10:56:29;7.40;;;4.47;;
69185;SDS011;56298;49.246;9.410;2023-06-14T10:58:59;8.05;;;4.40;;
69185;SDS011;56298;49.246;9.410;2023-06-14T11:01:37;7.40;;;4.10;;
69185;SDS011;56298;49.246;9.410;2023-06-14T11:04:19;8.35;;;3.90;;
69185;SDS011;56298;49.246;9.410;2023-06-14T11:06:46;6.63;;;3.92;;
69185;SDS011;56298;49.246;9.410;2023-06-14T11:09:25;7.32;;;4.13;;
69185;SDS011;56298;49.246;9.410;2023-06-14T11:12:06;6.97;;;4.07;;
69185;SDS011;56298;49.246;9.410;2023-06-14T11:14:35;7.70;;;3.90;;
69185;SDS011;56298;49.246;9.410;2023-06-14T11:17:00;7.33;;;3.80;;
69185;SDS011;56298;49.246;9.410;2023-06-14T11:19:26;7.10;;;4.60;;
69185;SDS011;56298;49.246;9.410;2023-06-14T11:21:53;6.93;;;4.20;;
69185;SDS011;56298;49.246;9.410;2023-06-14T11:24:19;6.93;;;4.20;;
69185;SDS011;56298;49.246;9.410;2023-06-14T11:26:46;7.50;;;4.50;;
69185;SDS011;56298;49.246;9.410;2023-06-14T11:29:12;6.82;;;4.15;;
69185;SDS011;56298;49.246;9.410;2023-06-14T11:31:43;8.68;;;4.20;;
69185;SDS011;56298;49.246;9.410;2023-06-14T11:34:09;7.40;;;4.13;;
69185;SDS011;56298;49.246;9.410;2023-06-14T11:36:34;6.83;;;4.10;;
69185;SDS011;56298;49.246;9.410;2023-06-14T11:39:00;7.38;;;4.13;;
69185;SDS011;56298;49.246;9.410;2023-06-14T11:41:43;7.78;;;4.22;;
69185;SDS011;56298;49.246;9.410;2023-06-14T11:44:10;6.97;;;4.40;;
69185;SDS011;56298;49.246;9.410;2023-06-14T11:46:36;6.03;;;4.03;;
69185;SDS011;56298;49.246;9.410;2023-06-14T11:49:02;9.00;;;4.00;;
69185;SDS011;56298;49.246;9.410;2023-06-14T11:51:30;6.95;;;4.10;;
69185;SDS011;56298;49.246;9.410;2023-06-14T11:53:56;6.03;;;3.90;;
69185;SDS011;56298;49.246;9.410;2023-06-14T11:56:23;7.43;;;4.00;;
69185;SDS011;56298;49.246;9.410;2023-06-14T11:58:48;7.03;;;4.30;;
69185;SDS011;56298;49.246;9.410;2023-06-14T12:01:14;6.57;;;4.43;;
69185;SDS011;56298;49.246;9.410;2023-06-14T12:03:49;7.00;;;4.13;;
69185;SDS011;56298;49.246;9.410;2023-06-14T12:06:15;9.75;;;4.32;;
69185;SDS011;56298;49.246;9.410;2023-06-14T12:08:43;7.03;;;4.30;;
69185;SDS011;56298;49.246;9.410;2023-06-14T12:11:10;6.35;;;4.55;;
69185;SDS011;56298;49.246;9.410;2023-06-14T12:13:40;8.50;;;4.30;;
69185;SDS011;56298;49.246;9.410;2023-06-14T12:16:09;7.17;;;4.57;;
69185;SDS011;56298;49.246;9.410;2023-06-14T12:18:36;7.38;;;4.20;;
69185;SDS011;56298;49.246;9.410;2023-06-14T12:21:06;8.68;;;4.20;;
69185;SDS011;56298;49.246;9.410;2023-06-14T12:23:39;7.88;;;4.38;;
69185;SDS011;56298;49.246;9.410;2023-06-14T12:26:07;7.57;;;4.20;;
69185;SDS011;56298;49.246;9.410;2023-06-14T12:28:32;7.00;;;4.13;;
69185;SDS011;56298;49.246;9.410;2023-06-14T12:30:58;6.60;;;4.13;;
69185;SDS011;56298;49.246;9.410;2023-06-14T12:33:23;7.20;;;3.90;;
69185;SDS011;56298;49.246;9.410;2023-06-14T12:35:49;8.88;;;3.85;;
69185;SDS011;56298;49.246;9.410;2023-06-14T12:38:15;7.33;;;4.53;;
69185;SDS011;56298;49.246;9.410;2023-06-14T12:40:41;7.20;;;4.28;;
69185;SDS011;56298;49.246;9.410;2023-06-14T12:43:07;6.82;;;3.83;;
69185;SDS011;56298;49.246;9.410;2023-06-14T12:45:32;6.70;;;3.97;;
69185;SDS011;56298;49.246;9.410;2023-06-14T12:47:58;7.00;;;4.20;;
69185;SDS011;56298;49.246;9.410;2023-06-14T12:50:23;6.43;;;3.83;;
69185;SDS011;56298;49.246;9.410;2023-06-14T12:52:48;7.43;;;4.13;;
69185;SDS011;56298;49.246;9.410;2023-06-14T12:55:13;7.50;;;4.27;;
69185;SDS011;56298;49.246;9.410;2023-06-14T12:57:39;7.75;;;4.15;;
69185;SDS011;56298;49.246;9.410;2023-06-14T13:00:05;6.43;;;4.27;;
69185;SDS011;56298;49.246;9.410;2023-06-14T13:02:32;6.97;;;4.00;;
69185;SDS011;56298;49.246;9.410;2023-06-14T13:04:57;6.60;;;4.10;;
69185;SDS011;56298;49.246;9.410;2023-06-14T13:07:24;6.53;;;4.20;;
69185;SDS011;56298;49.246;9.410;2023-06-14T13:09:49;7.07;;;4.10;;
69185;SDS011;56298;49.246;9.410;2023-06-14T13:12:15;8.30;;;4.30;;
69185;SDS011;56298;49.246;9.410;2023-06-14T13:14:40;6.83;;;4.33;;
69185;SDS011;56298;49.246;9.410;2023-06-14T13:17:07;6.90;;;4.10;;
69185;SDS011;56298;49.246;9.410;2023-06-14T13:19:33;6.47;;;4.38;;
69185;SDS011;56298;49.246;9.410;2023-06-14T13:21:58;6.97;;;3.90;;
69185;SDS011;56298;49.246;9.410;2023-06-14T13:24:24;7.50;;;4.30;;
69185;SDS011;56298;49.246;9.410;2023-06-14T13:26:49;8.40;;;4.13;;
69185;SDS011;56298;49.246;9.410;2023-06-14T13:29:14;6.67;;;4.00;;
69185;SDS011;56298;49.246;9.410;2023-06-14T13:31:40;7.03;;;3.67;;
69185;SDS011;56298;49.246;9.410;2023-06-14T13:34:05;6.77;;;4.40;;
69185;SDS011;56298;49.246;9.410;2023-06-14T13:36:30;6.50;;;4.07;;
69185;SDS011;56298;49.246;9.410;2023-06-14T13:38:56;8.95;;;4.38;;
69185;SDS011;56298;49.246;9.410;2023-06-14T13:41:23;7.75;;;4.18;;
69185;SDS011;56298;49.246;9.410;2023-06-14T13:43:56;6.18;;;3.88;;
69185;SDS011;56298;49.246;9.410;2023-06-14T13:46:21;6.87;;;3.90;;
69185;SDS011;56298;49.246;9.410;2023-06-14T13:48:46;8.07;;;4.10;;
69185;SDS011;56298;49.246;9.410;2023-06-14T13:51:12;6.17;;;3.93;;
69185;SDS011;56298;49.246;9.410;2023-06-14T13:53:37;7.05;;;3.78;;
69185;SDS011;56298;49.246;9.410;2023-06-14T13:56:03;7.65;;;4.10;;
69185;SDS011;56298;49.246;9.410;2023-06-14T13:58:28;6.50;;;4.10;;
69185;SDS011;56298;49.246;9.410;2023-06-14T14:00:54;6.63;;;4.10;;
69185;SDS011;56298;49.246;9.410;2023-06-14T14:03:19;8.43;;;4.13;;
69185;SDS011;56298;49.246;9.410;2023-06-14T14:05:44;6.90;;;4.13;;
69185;SDS011;56298;49.246;9.410;2023-06-14T14:08:10;6.07;;;3.83;;
69185;SDS011;56298;49.246;9.410;2023-06-14T14:10:35;8.30;;;4.43;;
69185;SDS011;56298;49.246;9.410;2023-06-14T14:13:01;7.43;;;4.27;;
69185;SDS011;56298;49.246;9.410;2023-06-14T14:15:26;7.07;;;4.13;;
69185;SDS011;56298;49.246;9.410;2023-06-14T14:17:52;7.67;;;4.50;;
69185;SDS011;56298;49.246;9.410;2023-06-14T14:20:19;6.72;;;4.40;;
69185;SDS011;56298;49.246;9.410;2023-06-14T14:22:44;7.10;;;4.00;;
69185;SDS011;56298;49.246;9.410;2023-06-14T14:25:09;7.40;;;4.30;;
69185;SDS011;56298;49.246;9.410;2023-06-14T14:27:35;6.53;;;3.90;;
69185;SDS011;56298;49.246;9.410;2023-06-14T14:30:02;7.90;;;4.40;;
69185;SDS011;56298;49.246;9.410;2023-06-14T14:32:28;6.77;;;4.00;;
69185;SDS011;56298;49.246;9.410;2023-06-14T14:34:53;7.10;;;4.20;;
69185;SDS011;56298;49.246;9.410;2023-06-14T14:37:19;7.20;;;3.83;;
69185;SDS011;56298;49.246;9.410;2023-06-14T14:39:44;8.03;;;3.90;;
69185;SDS011;56298;49.246;9.410;2023-06-14T14:42:09;7.22;;;3.78;;
69185;SDS011;56298;49.246;9.410;2023-06-14T14:44:36;6.15;;;4.03;;
69185;SDS011;56298;49.246;9.410;2023-06-14T14:47:01;7.33;;;4.00;;
69185;SDS011;56298;49.246;9.410;2023-06-14T14:49:27;6.80;;;3.97;;
69185;SDS011;56298;49.246;9.410;2023-06-14T14:51:53;8.20;;;4.10;;
69185;SDS011;56298;49.246;9.410;2023-06-14T14:54:18;7.70;;;3.80;;
69185;SDS011;56298;49.246;9.410;2023-06-14T14:56:43;7.60;;;3.83;;